Time;durP1;ratioP1;P1;durP2;ratioP2;P2;SDS_P1;SDS_P2;PMS_P1;PMS_P2;Temp;Humidity;BMP_temperature;BMP_pressure;BME280_temperature;BME280_humidity;BME280_pressure;Samples;Min_cycle;Max_cycle;Signal;HPM_P1;HPM_P2
2021/07/28 00:00:27;;;;;;;15.50;9.60;;;19.50;77.50;;;;;;5002423;28;20187;-94
2021/07/28 00:02:56;;;;;;;21.43;9.33;;;19.40;77.70;;;;;;5003436;28;20218;-94
2021/07/28 00:05:22;;;;;;;17.48;9.38;;;19.40;77.90;;;;;;5002421;28;20175;-94
2021/07/28 00:07:48;;;;;;;20.27;9.32;;;19.40;78.30;;;;;;5004066;28;20210;-94
2021/07/28 00:10:14;;;;;;;13.60;8.80;;;19.30;78.30;;;;;;5002263;28;20183;-94
2021/07/28 00:12:40;;;;;;;19.23;11.27;;;19.30;78.40;;;;;;5002639;28;20234;-94
2021/07/28 00:15:07;;;;;;;19.70;11.57;;;19.30;78.70;;;;;;5001950;28;20183;-93
2021/07/28 00:17:35;;;;;;;17.73;10.10;;;19.40;78.40;;;;;;5002380;28;20429;-94
2021/07/28 00:20:07;;;;;;;19.27;10.85;;;19.50;78.30;;;;;;5003981;28;20175;-95
2021/07/28 00:25:21;;;;;;;15.50;10.27;;;19.50;78.10;;;;;;5003844;28;20218;-94
2021/07/28 00:27:49;;;;;;;19.10;11.40;;;19.50;78.10;;;;;;5002798;28;20179;-94
2021/07/28 00:30:16;;;;;;;13.35;10.32;;;19.60;78.10;;;;;;5002428;28;20183;-94
2021/07/28 00:32:42;;;;;;;23.48;11.55;;;19.60;78.00;;;;;;5002590;28;20215;-94
2021/07/28 00:35:08;;;;;;;13.90;9.43;;;19.70;78.10;;;;;;5001249;28;20171;-93
2021/07/28 00:37:34;;;;;;;14.18;9.43;;;19.50;78.00;;;;;;5001463;28;20510;-94
2021/07/28 00:40:00;;;;;;;14.60;9.70;;;19.40;78.40;;;;;;5010931;28;20186;-94
2021/07/28 00:42:26;;;;;;;17.77;11.10;;;19.50;78.70;;;;;;5000969;28;20508;-94
2021/07/28 00:44:54;;;;;;;15.00;10.27;;;19.70;78.40;;;;;;5001996;28;20183;-94
2021/07/28 00:47:20;;;;;;;16.17;11.02;;;19.70;77.80;;;;;;5001555;28;20176;-94
2021/07/28 00:49:46;;;;;;;14.37;11.23;;;19.70;77.70;;;;;;5002800;28;20221;-95
2021/07/28 00:52:12;;;;;;;14.67;10.40;;;19.70;77.60;;;;;;5007967;28;20286;-94
2021/07/28 00:54:39;;;;;;;18.05;10.52;;;19.70;77.70;;;;;;5008926;28;20422;-92
2021/07/28 00:57:07;;;;;;;14.30;10.30;;;19.70;77.70;;;;;;5001584;28;20754;-92
2021/07/28 00:59:32;;;;;;;16.50;11.65;;;19.70;77.50;;;;;;5012138;28;20217;-92
2021/07/28 01:01:58;;;;;;;17.63;11.27;;;19.40;77.90;;;;;;5004358;28;20239;-91
2021/07/28 01:04:25;;;;;;;19.73;11.00;;;19.30;78.40;;;;;;5003631;28;20205;-93
2021/07/28 01:06:50;;;;;;;15.82;10.43;;;19.30;79.00;;;;;;5001067;28;20183;-92
2021/07/28 01:09:16;;;;;;;22.37;11.43;;;19.40;79.00;;;;;;5001362;28;20217;-92
2021/07/28 01:11:42;;;;;;;21.30;13.07;;;19.20;79.10;;;;;;5000520;28;20290;-93
2021/07/28 01:14:08;;;;;;;17.93;13.00;;;19.30;79.40;;;;;;5001033;28;20201;-92
2021/07/28 01:16:38;;;;;;;17.63;11.20;;;19.30;79.50;;;;;;5001784;28;20438;-93
2021/07/28 01:19:15;;;;;;;18.88;11.70;;;19.00;79.80;;;;;;5000660;28;20179;-93
2021/07/28 01:21:44;;;;;;;20.80;11.02;;;19.20;80.10;;;;;;5004590;28;20171;-95
2021/07/28 01:24:13;;;;;;;20.77;12.77;;;19.30;80.00;;;;;;5003516;28;20183;-94
2021/07/28 01:26:39;;;;;;;15.82;10.85;;;19.30;79.60;;;;;;5002623;28;20210;-94
2021/07/28 01:29:05;;;;;;;22.63;12.43;;;19.40;79.60;;;;;;5004739;28;20634;-94
2021/07/28 01:31:40;;;;;;;16.42;11.70;;;19.50;79.40;;;;;;5001603;28;20207;-94
2021/07/28 01:34:08;;;;;;;15.15;10.48;;;19.50;79.00;;;;;;5007286;28;20205;-93
2021/07/28 01:36:35;;;;;;;15.48;9.52;;;19.50;79.10;;;;;;5013633;28;20195;-93
2021/07/28 01:39:03;;;;;;;18.23;11.55;;;19.50;79.10;;;;;;5007189;28;20259;-93
2021/07/28 01:41:29;;;;;;;18.77;10.45;;;19.50;79.00;;;;;;5006443;28;20190;-94
2021/07/28 01:43:55;;;;;;;17.30;10.20;;;19.60;78.90;;;;;;5001100;28;20175;-95
2021/07/28 01:46:20;;;;;;;16.10;10.23;;;19.60;78.60;;;;;;5002390;28;20176;-94
2021/07/28 01:48:46;;;;;;;17.23;11.40;;;19.70;78.70;;;;;;5002375;28;20425;-94
2021/07/28 01:51:12;;;;;;;20.63;12.03;;;19.60;78.90;;;;;;5004892;28;20238;-93
2021/07/28 01:53:38;;;;;;;22.45;11.55;;;19.70;78.80;;;;;;5002273;28;20599;-93
2021/07/28 01:56:04;;;;;;;17.40;10.33;;;19.80;78.40;;;;;;5001175;28;20175;-94
2021/07/28 01:58:30;;;;;;;13.43;9.93;;;19.90;78.30;;;;;;5001499;28;20174;-94
2021/07/28 02:00:56;;;;;;;12.70;9.52;;;19.90;78.10;;;;;;5000998;28;20414;-94
2021/07/28 02:03:22;;;;;;;16.92;11.00;;;19.70;78.40;;;;;;5000751;28;20206;-93
2021/07/28 02:05:49;;;;;;;20.60;11.27;;;19.80;78.40;;;;;;5014461;28;20191;-94
2021/07/28 02:08:16;;;;;;;20.38;12.38;;;19.90;78.40;;;;;;5000188;28;20426;-94
2021/07/28 02:10:47;;;;;;;26.42;12.07;;;19.90;78.20;;;;;;5000363;28;20190;-94
2021/07/28 02:13:14;;;;;;;13.32;9.85;;;19.90;78.10;;;;;;5000399;28;20214;-94
2021/07/28 02:15:40;;;;;;;21.23;12.60;;;19.80;78.30;;;;;;5001212;28;20179;-94
2021/07/28 02:18:06;;;;;;;23.00;12.77;;;19.90;78.40;;;;;;5002896;28;20190;-94
2021/07/28 02:20:33;;;;;;;15.27;10.77;;;19.80;78.50;;;;;;5002664;28;20427;-94
2021/07/28 02:22:59;;;;;;;24.02;12.55;;;20.00;78.50;;;;;;5007282;28;20446;-94
2021/07/28 02:25:25;;;;;;;13.07;11.07;;;20.00;78.30;;;;;;5002722;28;20290;-94
2021/07/28 02:27:51;;;;;;;18.47;11.30;;;20.00;78.30;;;;;;5002432;28;20198;-94
2021/07/28 02:30:17;;;;;;;17.43;11.33;;;19.90;78.30;;;;;;5003791;28;20438;-94
2021/07/28 02:32:44;;;;;;;21.70;11.90;;;19.80;78.70;;;;;;5007954;28;20245;-94
2021/07/28 02:35:14;;;;;;;17.40;11.57;;;19.90;78.80;;;;;;5000421;28;20176;-94
2021/07/28 02:37:41;;;;;;;20.42;12.20;;;19.90;78.80;;;;;;5001303;28;20181;-94
2021/07/28 02:40:09;;;;;;;18.67;11.45;;;20.00;78.90;;;;;;5005270;28;20183;-94
2021/07/28 02:42:36;;;;;;;20.58;10.75;;;19.90;78.90;;;;;;4990315;28;20231;-94
2021/07/28 02:45:02;;;;;;;16.17;11.87;;;20.00;78.70;;;;;;5005701;28;20273;-94
2021/07/28 02:47:28;;;;;;;17.13;11.77;;;20.10;78.50;;;;;;5006365;28;20441;-95
2021/07/28 02:49:54;;;;;;;19.40;12.30;;;19.90;78.50;;;;;;5009674;28;20418;-95
2021/07/28 02:52:20;;;;;;;20.15;11.68;;;20.00;78.80;;;;;;5011075;28;20214;-93
2021/07/28 02:54:46;;;;;;;16.27;11.20;;;20.00;78.60;;;;;;5007370;28;20662;-93
2021/07/28 02:57:12;;;;;;;17.27;11.38;;;19.90;78.70;;;;;;5007068;28;20246;-94
2021/07/28 02:59:37;;;;;;;19.63;11.80;;;20.20;78.50;;;;;;5006278;28;20243;-93
2021/07/28 03:02:03;;;;;;;16.43;11.80;;;20.10;78.30;;;;;;5006146;28;20442;-94
2021/07/28 03:04:29;;;;;;;27.45;13.55;;;20.00;78.50;;;;;;5007717;28;20183;-92
2021/07/28 03:06:55;;;;;;;17.20;11.33;;;20.20;78.30;;;;;;5010781;28;20206;-93
2021/07/28 03:09:21;;;;;;;19.70;12.97;;;20.10;78.10;;;;;;5011808;28;20194;-93
2021/07/28 03:11:47;;;;;;;16.83;11.27;;;20.10;78.10;;;;;;5016463;28;20223;-92
2021/07/28 03:14:12;;;;;;;19.30;12.27;;;20.10;78.30;;;;;;5012102;28;20230;-93
2021/07/28 03:16:41;;;;;;;27.87;12.53;;;20.00;78.40;;;;;;5011776;28;20457;-93
2021/07/28 03:19:07;;;;;;;23.23;11.18;;;20.10;78.50;;;;;;5011859;28;20243;-93
2021/07/28 03:21:33;;;;;;;14.13;10.80;;;20.10;78.30;;;;;;5013998;28;20183;-93
2021/07/28 03:24:00;;;;;;;21.80;12.30;;;20.30;78.10;;;;;;5011344;28;20269;-93
2021/07/28 03:26:27;;;;;;;25.90;12.20;;;20.40;77.60;;;;;;5006322;28;20426;-93
2021/07/28 03:28:52;;;;;;;19.02;12.38;;;20.40;77.30;;;;;;5020960;28;20380;-92
2021/07/28 03:31:18;;;;;;;17.20;12.30;;;20.30;77.40;;;;;;5006844;28;20210;-93
2021/07/28 03:33:44;;;;;;;15.03;11.80;;;20.00;78.00;;;;;;5005939;28;20212;-92
2021/07/28 03:36:10;;;;;;;14.47;11.70;;;20.00;78.50;;;;;;5006001;28;20190;-93
2021/07/28 03:38:35;;;;;;;15.27;11.60;;;19.90;78.80;;;;;;5006549;28;20187;-93
2021/07/28 03:41:01;;;;;;;16.80;11.57;;;19.90;79.00;;;;;;5006622;28;20258;-92
2021/07/28 03:43:27;;;;;;;23.73;12.80;;;19.90;79.00;;;;;;5006485;28;20703;-92
2021/07/28 03:45:54;;;;;;;27.67;12.80;;;20.10;78.80;;;;;;5007058;28;20426;-92
2021/07/28 03:48:19;;;;;;;18.77;11.40;;;20.00;78.40;;;;;;5007144;28;20179;-93
2021/07/28 03:50:46;;;;;;;18.93;12.33;;;20.00;78.40;;;;;;5005990;28;20175;-96
2021/07/28 03:53:11;;;;;;;18.58;12.38;;;20.20;78.20;;;;;;5009851;28;20470;-94
2021/07/28 03:55:37;;;;;;;21.23;13.30;;;19.90;78.40;;;;;;5007140;28;20255;-94
2021/07/28 03:58:03;;;;;;;19.37;12.13;;;19.80;78.90;;;;;;5003737;28;20191;-94
2021/07/28 04:00:29;;;;;;;19.53;12.80;;;19.80;79.20;;;;;;5002954;28;20465;-94
2021/07/28 04:02:55;;;;;;;22.00;12.60;;;19.70;79.10;;;;;;5005128;28;20641;-94
2021/07/28 04:05:21;;;;;;;19.05;13.95;;;19.70;79.50;;;;;;5004512;28;20290;-93
2021/07/28 04:07:55;;;;;;;24.33;14.00;;;19.60;79.60;;;;;;5004554;28;20198;-94
2021/07/28 04:10:20;;;;;;;22.52;13.25;;;19.60;79.80;;;;;;5005982;28;20176;-93
2021/07/28 04:12:46;;;;;;;21.33;13.80;;;19.80;79.70;;;;;;5006483;28;20737;-94
2021/07/28 04:15:12;;;;;;;22.43;13.40;;;19.80;79.30;;;;;;5013173;28;20442;-92
2021/07/28 04:17:38;;;;;;;22.23;11.27;;;19.70;79.10;;;;;;5010519;28;20551;-93
2021/07/28 04:20:04;;;;;;;22.00;11.00;;;19.70;79.10;;;;;;5005934;28;20646;-92
2021/07/28 04:22:30;;;;;;;16.40;10.25;;;19.70;79.00;;;;;;5012591;28;20274;-93
2021/07/28 04:24:55;;;;;;;15.87;10.57;;;19.60;78.90;;;;;;5014422;28;20183;-94
2021/07/28 04:27:21;;;;;;;14.90;10.40;;;19.50;79.10;;;;;;5004208;28;20198;-94
2021/07/28 04:29:47;;;;;;;16.20;9.30;;;19.30;79.30;;;;;;5005080;28;20670;-94
2021/07/28 04:32:13;;;;;;;23.10;9.50;;;19.40;79.30;;;;;;5005127;28;20222;-94
2021/07/28 04:34:38;;;;;;;10.93;9.13;;;19.60;79.10;;;;;;5003079;28;20218;-94
2021/07/28 04:37:04;;;;;;;13.33;9.47;;;19.50;78.60;;;;;;5003284;28;20205;-94
2021/07/28 04:39:34;;;;;;;16.88;8.88;;;19.40;78.40;;;;;;5004033;28;20180;-93
2021/07/28 04:41:59;;;;;;;14.10;8.50;;;19.50;78.50;;;;;;5006959;28;20230;-93
2021/07/28 04:44:25;;;;;;;14.73;9.70;;;19.50;78.50;;;;;;5007752;28;20281;-94
2021/07/28 04:46:51;;;;;;;11.83;8.43;;;19.70;78.00;;;;;;5008249;28;20445;-94
2021/07/28 04:49:17;;;;;;;15.20;10.40;;;19.60;77.60;;;;;;5008197;28;20282;-93
2021/07/28 04:51:43;;;;;;;16.30;8.93;;;19.60;77.60;;;;;;5009277;28;20338;-94
2021/07/28 04:54:09;;;;;;;11.50;8.95;;;19.70;77.20;;;;;;5007785;28;20520;-93
2021/07/28 04:56:35;;;;;;;9.70;8.10;;;19.80;77.00;;;;;;5006925;28;20190;-94
2021/07/28 04:59:01;;;;;;;11.00;9.03;;;19.80;76.30;;;;;;5006359;28;20261;-95
2021/07/28 05:01:27;;;;;;;15.27;8.80;;;19.80;76.20;;;;;;5005264;28;20440;-92
2021/07/28 05:03:53;;;;;;;15.13;9.30;;;19.90;75.90;;;;;;5004387;28;20222;-94
2021/07/28 05:06:19;;;;;;;10.17;8.43;;;19.80;75.30;;;;;;5005099;28;20187;-94
2021/07/28 05:08:44;;;;;;;12.50;8.77;;;19.80;75.60;;;;;;5004391;28;20191;-94
2021/07/28 05:11:10;;;;;;;12.03;7.90;;;19.60;75.60;;;;;;5004684;28;20207;-94
2021/07/28 05:13:36;;;;;;;13.50;8.23;;;19.70;75.90;;;;;;5005654;28;20712;-94
2021/07/28 05:16:03;;;;;;;12.37;7.70;;;19.90;75.60;;;;;;5005244;28;20426;-94
2021/07/28 05:18:29;;;;;;;17.30;8.45;;;20.00;75.00;;;;;;5004851;28;20517;-94
2021/07/28 05:20:56;;;;;;;13.10;9.83;;;20.00;74.90;;;;;;5013330;28;20219;-94
2021/07/28 05:23:22;;;;;;;13.82;9.23;;;20.20;74.10;;;;;;5011320;28;20211;-94
2021/07/28 05:25:48;;;;;;;16.67;8.10;;;20.30;73.80;;;;;;5006490;28;20187;-94
2021/07/28 05:28:13;;;;;;;11.57;8.80;;;20.40;73.40;;;;;;5004571;28;20179;-94
2021/07/28 05:30:39;;;;;;;13.33;7.63;;;20.40;73.40;;;;;;5004599;28;20179;-94
2021/07/28 05:33:05;;;;;;;10.13;7.13;;;20.60;73.00;;;;;;5004557;28;20222;-94
2021/07/28 05:35:31;;;;;;;7.87;7.00;;;20.60;72.70;;;;;;5004456;28;20175;-94
2021/07/28 05:37:59;;;;;;;9.53;5.93;;;20.80;72.20;;;;;;5006010;28;20506;-94
2021/07/28 05:40:25;;;;;;;17.70;6.97;;;21.00;70.90;;;;;;5005244;28;20176;-94
2021/07/28 05:42:52;;;;;;;12.17;5.53;;;21.20;69.60;;;;;;5004938;28;20513;-94
2021/07/28 05:45:17;;;;;;;6.10;4.50;;;21.90;68.50;;;;;;5007302;28;20434;-94
2021/07/28 05:47:45;;;;;;;13.10;5.43;;;22.80;66.30;;;;;;5005097;28;20422;-94
2021/07/28 05:50:15;;;;;;;6.40;4.63;;;23.80;62.80;;;;;;5007355;28;20190;-94
2021/07/28 05:52:43;;;;;;;6.40;4.90;;;24.90;59.80;;;;;;5001615;28;20474;-95
2021/07/28 05:55:09;;;;;;;7.17;4.10;;;26.00;55.50;;;;;;5001593;28;20422;-94
2021/07/28 05:57:35;;;;;;;6.53;4.03;;;27.00;52.60;;;;;;5002110;28;20493;-94
2021/07/28 06:00:05;;;;;;;7.17;3.37;;;27.70;48.80;;;;;;5001763;28;20843;-95
2021/07/28 06:02:31;;;;;;;7.00;4.10;;;28.40;47.40;;;;;;5003860;28;20465;-94
2021/07/28 06:04:57;;;;;;;6.40;4.57;;;28.70;45.30;;;;;;5004159;28;20427;-95
2021/07/28 06:07:23;;;;;;;4.30;3.23;;;29.10;44.80;;;;;;5002259;28;20257;-95
2021/07/28 06:09:49;;;;;;;6.57;5.43;;;29.00;43.80;;;;;;5003156;28;20183;-95
2021/07/28 06:12:18;;;;;;;6.57;3.27;;;28.40;43.90;;;;;;5001250;28;20474;-94
2021/07/28 06:14:45;;;;;;;3.40;2.90;;;27.90;44.50;;;;;;5002184;28;20265;-94
2021/07/28 06:17:11;;;;;;;3.97;2.60;;;26.90;46.40;;;;;;5010758;28;20478;-95
2021/07/28 06:19:38;;;;;;;5.33;3.27;;;26.30;48.60;;;;;;5001166;28;20419;-94
2021/07/28 06:22:03;;;;;;;4.43;3.57;;;25.80;49.70;;;;;;5001191;28;20446;-95
2021/07/28 06:24:29;;;;;;;6.00;3.30;;;25.10;51.60;;;;;;5001038;28;20440;-94
2021/07/28 06:26:55;;;;;;;6.70;3.83;;;24.50;53.30;;;;;;5013795;28;20461;-94
2021/07/28 06:29:21;;;;;;;3.07;2.83;;;24.00;54.80;;;;;;5006377;28;20183;-94
2021/07/28 06:31:47;;;;;;;8.43;3.83;;;23.80;56.10;;;;;;5001420;28;20215;-94
2021/07/28 06:34:14;;;;;;;6.20;3.80;;;23.50;57.20;;;;;;5002171;28;20486;-94
2021/07/28 06:36:40;;;;;;;8.37;5.17;;;23.40;57.60;;;;;;5000929;28;20758;-94
2021/07/28 06:39:05;;;;;;;5.40;3.53;;;23.20;58.00;;;;;;5000643;28;20418;-94
2021/07/28 06:41:31;;;;;;;4.93;3.20;;;23.40;58.40;;;;;;5001433;28;20660;-94
2021/07/28 06:43:57;;;;;;;4.73;3.00;;;23.90;58.10;;;;;;5002883;28;20213;-94
2021/07/28 06:46:22;;;;;;;7.40;2.70;;;24.10;56.60;;;;;;5002745;28;20206;-95
2021/07/28 06:48:48;;;;;;;5.80;3.30;;;24.50;55.10;;;;;;5001696;28;20325;-95
2021/07/28 06:51:14;;;;;;;7.70;3.50;;;24.80;54.50;;;;;;5001807;28;20214;-94
2021/07/28 06:53:40;;;;;;;7.80;3.83;;;25.10;54.10;;;;;;5004098;28;20199;-94
2021/07/28 06:56:06;;;;;;;4.20;3.30;;;24.90;52.90;;;;;;5002923;28;20430;-94
2021/07/28 06:58:32;;;;;;;5.60;3.70;;;24.90;53.20;;;;;;5004193;28;20597;-94
2021/07/28 07:00:59;;;;;;;5.53;3.20;;;25.00;53.50;;;;;;5002913;28;20453;-94
2021/07/28 07:03:25;;;;;;;11.43;3.00;;;25.00;53.40;;;;;;5003445;28;20437;-95
2021/07/28 07:05:51;;;;;;;8.20;3.10;;;25.10;53.20;;;;;;5004402;28;20418;-94
2021/07/28 07:08:17;;;;;;;4.23;2.57;;;25.20;52.70;;;;;;5006016;28;20171;-94
2021/07/28 07:10:43;;;;;;;5.70;2.87;;;25.20;52.60;;;;;;5006231;28;20522;-94
2021/07/28 07:13:08;;;;;;;4.17;2.93;;;25.00;52.50;;;;;;5008445;28;20474;-94
2021/07/28 07:15:34;;;;;;;6.87;2.87;;;24.70;52.80;;;;;;5008270;28;20190;-94
2021/07/28 07:18:00;;;;;;;7.13;3.20;;;24.50;53.50;;;;;;5006250;28;20577;-94
2021/07/28 07:20:26;;;;;;;13.43;3.53;;;24.40;54.10;;;;;;5004674;28;20179;-94
2021/07/28 07:22:51;;;;;;;10.80;3.60;;;24.20;54.50;;;;;;5003175;28;20214;-94
2021/07/28 07:25:17;;;;;;;4.43;3.23;;;24.00;55.20;;;;;;5007363;28;20254;-94
2021/07/28 07:27:45;;;;;;;4.10;3.40;;;24.00;55.70;;;;;;5011520;28;20227;-94
2021/07/28 07:30:11;;;;;;;3.67;3.33;;;24.00;55.50;;;;;;5011397;28;20192;-94
2021/07/28 07:32:37;;;;;;;4.43;2.70;;;23.80;55.70;;;;;;5017131;28;20870;-94
2021/07/28 07:35:03;;;;;;;6.63;3.53;;;23.90;56.40;;;;;;5009000;28;20432;-94
2021/07/28 07:37:29;;;;;;;7.70;3.67;;;24.00;55.90;;;;;;5008167;28;20525;-94
2021/07/28 07:39:55;;;;;;;4.60;3.17;;;23.80;56.30;;;;;;5008725;28;20422;-94
2021/07/28 07:42:20;;;;;;;4.97;3.60;;;23.90;56.60;;;;;;5007825;28;20588;-94
2021/07/28 07:44:48;;;;;;;6.87;3.80;;;24.00;56.40;;;;;;5008066;28;20597;-94
2021/07/28 07:47:14;;;;;;;5.90;2.90;;;23.90;56.40;;;;;;5005672;28;20187;-94
2021/07/28 07:49:40;;;;;;;3.40;3.10;;;23.90;56.10;;;;;;5005316;28;20466;-94
2021/07/28 07:52:06;;;;;;;3.60;2.93;;;23.90;56.10;;;;;;5010649;28;20488;-93
2021/07/28 07:54:33;;;;;;;4.00;2.97;;;24.10;56.00;;;;;;5011386;28;20211;-94
2021/07/28 07:56:59;;;;;;;3.67;3.37;;;24.30;55.70;;;;;;5007884;28;20419;-95
2021/07/28 07:59:25;;;;;;;6.40;2.90;;;24.30;55.00;;;;;;5006444;28;20424;-95
2021/07/28 08:01:51;;;;;;;4.23;2.83;;;24.40;54.20;;;;;;5006363;28;20540;-94
2021/07/28 08:04:20;;;;;;;6.47;3.30;;;24.20;53.90;;;;;;5006630;28;20514;-94
2021/07/28 08:06:46;;;;;;;4.40;3.17;;;24.30;54.50;;;;;;5008892;28;20418;-94
2021/07/28 08:09:12;;;;;;;8.50;3.00;;;24.30;54.50;;;;;;5014833;28;20486;-94
2021/07/28 08:11:38;;;;;;;5.27;3.13;;;24.30;54.70;;;;;;5012801;28;20219;-95
2021/07/28 08:14:04;;;;;;;6.13;2.93;;;24.20;54.80;;;;;;5005207;28;20202;-94
2021/07/28 08:16:30;;;;;;;5.70;3.10;;;24.20;54.10;;;;;;5008086;28;21001;-95
2021/07/28 08:18:56;;;;;;;3.87;3.50;;;24.20;54.10;;;;;;5004104;28;20194;-95
2021/07/28 08:21:21;;;;;;;10.03;4.20;;;24.20;54.60;;;;;;5003238;28;20186;-94
2021/07/28 08:23:48;;;;;;;7.93;3.73;;;24.10;54.70;;;;;;5004633;28;20206;-94
2021/07/28 08:26:15;;;;;;;6.40;3.43;;;24.00;54.90;;;;;;5001249;28;20275;-94
2021/07/28 08:28:42;;;;;;;4.20;3.23;;;23.90;54.60;;;;;;4999993;28;20454;-94
2021/07/28 08:31:09;;;;;;;9.10;3.00;;;24.00;55.20;;;;;;5000535;28;20430;-94
2021/07/28 08:33:35;;;;;;;4.60;3.17;;;24.00;54.90;;;;;;4999547;28;20450;-94
2021/07/28 08:36:03;;;;;;;3.80;2.87;;;24.00;54.80;;;;;;4999244;28;20427;-94
2021/07/28 08:38:29;;;;;;;3.30;3.00;;;24.10;54.00;;;;;;5013461;28;20470;-95
2021/07/28 08:41:00;;;;;;;7.03;3.20;;;23.60;53.40;;;;;;5000474;28;20476;-95
2021/07/28 08:43:34;;;;;;;32.57;6.37;;;23.40;54.50;;;;;;4999968;28;20203;-94
2021/07/28 08:46:05;;;;;;;3.67;3.37;;;23.10;55.80;;;;;;5001628;28;20434;-94
2021/07/28 08:48:32;;;;;;;10.97;3.37;;;23.00;56.70;;;;;;5001556;28;20924;-93
2021/07/28 08:51:02;;;;;;;6.40;3.33;;;23.00;57.40;;;;;;5000850;28;20422;-95
2021/07/28 08:53:29;;;;;;;6.70;3.57;;;23.20;57.10;;;;;;5000749;28;20443;-95
2021/07/28 08:55:56;;;;;;;9.00;2.77;;;23.10;56.40;;;;;;4998784;28;20426;-94
2021/07/28 08:58:24;;;;;;;7.77;3.40;;;23.20;56.50;;;;;;4998387;28;20418;-94
2021/07/28 09:00:50;;;;;;;5.63;3.10;;;23.50;56.20;;;;;;4999207;28;20421;-94
2021/07/28 09:03:16;;;;;;;4.93;2.70;;;23.70;54.90;;;;;;5000099;28;20811;-94
2021/07/28 09:05:46;;;;;;;6.23;3.10;;;24.00;53.70;;;;;;5003410;28;20418;-94
2021/07/28 09:08:24;;;;;;;6.17;2.70;;;24.10;53.00;;;;;;5003256;28;20406;-94
2021/07/28 09:10:53;;;;;;;5.00;3.30;;;24.10;52.60;;;;;;4999465;28;20416;-94
2021/07/28 09:13:26;;;;;;;4.43;2.33;;;24.20;52.90;;;;;;4998769;28;20827;-94
2021/07/28 09:15:55;;;;;;;3.50;2.83;;;24.50;52.70;;;;;;4998900;28;20418;-94
2021/07/28 09:18:33;;;;;;;7.37;3.20;;;24.50;52.50;;;;;;4998606;28;20450;-94
2021/07/28 09:21:00;;;;;;;11.73;3.00;;;24.40;51.80;;;;;;4998295;28;20485;-94
2021/07/28 09:23:40;;;;;;;6.07;2.80;;;24.50;51.90;;;;;;4998340;28;20445;-94
2021/07/28 09:26:39;;;;;;;3.40;2.50;;;24.80;51.80;;;;;;4998292;28;20513;-94
2021/07/28 09:29:04;;;;;;;7.10;3.40;;;24.40;51.30;;;;;;4998266;28;20442;-94
2021/07/28 09:32:00;;;;;;;4.03;3.10;;;24.30;52.30;;;;;;4998284;28;20454;-95
2021/07/28 09:34:26;;;;;;;9.70;3.50;;;24.30;52.90;;;;;;4998523;28;20187;-94
2021/07/28 09:37:04;;;;;;;9.13;3.27;;;24.20;52.70;;;;;;4998040;28;20502;-94
2021/07/28 09:39:35;;;;;;;5.20;3.47;;;24.20;53.20;;;;;;4997934;28;20425;-94
2021/07/28 09:42:16;;;;;;;3.40;3.10;;;24.00;53.50;;;;;;5001056;28;20446;-94
2021/07/28 09:44:55;;;;;;;5.10;3.20;;;23.90;53.70;;;;;;5008011;28;20458;-94
2021/07/28 09:47:25;;;;;;;5.93;3.07;;;23.90;53.60;;;;;;5000011;28;20446;-94
2021/07/28 09:49:57;;;;;;;8.03;3.10;;;23.90;52.80;;;;;;4999943;28;20403;-94
2021/07/28 09:52:25;;;;;;;6.57;3.17;;;24.10;52.50;;;;;;4998480;28;20877;-94
2021/07/28 09:54:54;;;;;;;21.90;5.33;;;24.30;52.50;;;;;;4998852;28;20490;-94
2021/07/28 09:57:22;;;;;;;5.57;3.07;;;24.50;52.40;;;;;;4998532;28;20477;-94
2021/07/28 09:59:59;;;;;;;5.67;2.70;;;24.80;51.20;;;;;;4998987;28;20429;-94
2021/07/28 10:02:25;;;;;;;7.53;2.63;;;25.10;50.50;;;;;;5004729;28;20434;-93
2021/07/28 10:04:54;;;;;;;6.43;3.07;;;25.30;49.70;;;;;;5002154;28;20458;-94
2021/07/28 10:07:21;;;;;;;7.07;3.37;;;25.50;49.10;;;;;;4997426;28;20453;-93
2021/07/28 10:10:11;;;;;;;5.50;3.30;;;25.70;48.20;;;;;;5000580;28;20418;-94
2021/07/28 10:12:41;;;;;;;7.23;3.37;;;25.50;47.80;;;;;;4997612;28;20492;-94
2021/07/28 10:15:08;;;;;;;3.90;3.03;;;25.30;48.40;;;;;;4997484;28;20493;-95
2021/07/28 10:17:43;;;;;;;7.30;3.10;;;25.50;48.80;;;;;;4997165;28;20488;-94
2021/07/28 10:20:11;;;;;;;9.57;3.87;;;25.60;48.50;;;;;;4998497;28;20417;-95
2021/07/28 10:22:38;;;;;;;7.27;3.53;;;25.80;48.20;;;;;;4996538;28;20533;-94
2021/07/28 10:25:08;;;;;;;13.27;3.83;;;25.80;48.20;;;;;;4996007;28;20429;-94
2021/07/28 10:27:51;;;;;;;6.43;3.00;;;25.90;48.00;;;;;;5001869;28;20457;-94
2021/07/28 10:30:20;;;;;;;3.87;2.50;;;25.10;48.30;;;;;;5001135;28;20425;-94
2021/07/28 10:32:49;;;;;;;6.30;2.67;;;24.80;49.30;;;;;;4997375;28;20477;-94
2021/07/28 10:35:30;;;;;;;4.47;3.60;;;25.10;50.40;;;;;;4997815;28;20909;-95
2021/07/28 10:37:58;;;;;;;5.30;3.37;;;25.20;49.00;;;;;;4999362;28;20494;-94
2021/07/28 10:40:26;;;;;;;11.90;4.67;;;25.20;48.60;;;;;;4998581;28;20422;-94
2021/07/28 10:42:55;;;;;;;5.73;3.80;;;24.90;49.10;;;;;;4997358;28;20449;-94
2021/07/28 10:45:26;;;;;;;4.10;3.70;;;24.70;50.30;;;;;;4998302;28;20422;-94
2021/07/28 10:47:52;;;;;;;5.87;3.10;;;24.70;51.00;;;;;;5000024;28;20418;-94
2021/07/28 10:50:24;;;;;;;6.93;3.43;;;24.60;50.10;;;;;;5005461;28;20770;-94
2021/07/28 10:52:51;;;;;;;9.93;3.60;;;24.60;50.60;;;;;;4998781;28;20478;-94
2021/07/28 10:55:22;;;;;;;7.07;4.00;;;24.60;50.40;;;;;;4998286;28;20422;-94
2021/07/28 10:57:54;;;;;;;10.07;3.20;;;24.40;51.40;;;;;;4998439;28;20421;-94
2021/07/28 11:00:38;;;;;;;11.67;3.33;;;24.50;51.90;;;;;;5002290;28;20520;-94
2021/07/28 11:03:13;;;;;;;28.73;5.00;;;24.30;52.90;;;;;;5003572;28;20434;-94
2021/07/28 11:05:45;;;;;;;17.60;3.47;;;24.20;54.90;;;;;;5003910;28;20952;-94
2021/07/28 11:08:14;;;;;;;22.33;4.80;;;24.30;55.40;;;;;;5000654;28;20526;-94
2021/07/28 11:10:53;;;;;;;9.83;4.30;;;24.00;55.20;;;;;;5000261;28;20426;-94
2021/07/28 11:13:30;;;;;;;22.47;6.30;;;23.50;57.40;;;;;;5000058;28;20470;-94
2021/07/28 11:16:15;;;;;;;5.77;4.20;;;23.30;60.60;;;;;;4999810;28;20414;-94
2021/07/28 11:18:46;;;;;;;4.83;4.43;;;22.90;62.50;;;;;;5001424;28;20424;-95
2021/07/28 11:21:14;;;;;;;13.40;4.60;;;22.80;63.90;;;;;;5009759;28;20414;-94
2021/07/28 11:23:51;;;;;;;5.03;3.83;;;22.70;65.30;;;;;;5007708;28;20434;-94
2021/07/28 11:26:23;;;;;;;13.77;4.00;;;22.70;65.50;;;;;;5001853;28;20402;-93
2021/07/28 11:28:51;;;;;;;7.47;4.00;;;22.80;65.10;;;;;;5000754;28;20422;-93
2021/07/28 11:31:27;;;;;;;5.33;4.00;;;23.10;64.50;;;;;;5002257;28;20471;-93
2021/07/28 11:34:05;;;;;;;10.10;3.90;;;23.60;63.80;;;;;;4983911;28;20418;-94
2021/07/28 11:36:32;;;;;;;8.30;3.93;;;23.60;62.50;;;;;;4999478;28;20410;-93
2021/07/28 11:39:05;;;;;;;9.13;4.03;;;23.50;62.80;;;;;;4999251;28;20441;-94
2021/07/28 11:41:31;;;;;;;7.07;2.90;;;23.60;63.80;;;;;;4999480;28;20531;-94
2021/07/28 11:43:57;;;;;;;5.90;3.37;;;23.80;63.60;;;;;;4999176;28;20417;-93
2021/07/28 11:46:32;;;;;;;4.27;3.03;;;24.00;63.10;;;;;;5001028;28;20213;-93
2021/07/28 11:49:05;;;;;;;4.03;3.50;;;23.90;62.00;;;;;;4999268;28;20480;-94
2021/07/28 11:51:35;;;;;;;5.40;3.37;;;23.90;61.00;;;;;;5000355;28;20458;-93
2021/07/28 11:54:11;;;;;;;4.23;3.20;;;23.90;60.90;;;;;;5005533;28;20470;-93
2021/07/28 11:56:45;;;;;;;7.83;3.20;;;24.00;60.30;;;;;;5019165;28;20410;-93
2021/07/28 11:59:11;;;;;;;3.50;2.70;;;23.70;60.20;;;;;;5009066;28;20493;-93
2021/07/28 12:01:47;;;;;;;3.10;2.80;;;23.40;61.30;;;;;;5000050;28;20479;-94
2021/07/28 12:04:18;;;;;;;4.00;2.60;;;23.00;62.90;;;;;;5000526;28;20395;-94
2021/07/28 12:06:44;;;;;;;6.17;2.60;;;22.90;64.40;;;;;;4999789;28;20425;-93
2021/07/28 12:09:27;;;;;;;5.33;3.20;;;22.90;65.70;;;;;;4999351;28;20410;-94
2021/07/28 12:12:02;;;;;;;2.90;2.70;;;22.90;65.70;;;;;;4997099;28;20470;-93
2021/07/28 12:14:34;;;;;;;4.80;2.60;;;23.00;67.20;;;;;;4998619;28;20442;-93
2021/07/28 12:17:01;;;;;;;3.50;2.60;;;23.30;65.70;;;;;;4998717;28;20481;-93
2021/07/28 12:19:39;;;;;;;2.83;1.97;;;23.30;65.40;;;;;;5000674;28;20434;-94
2021/07/28 12:22:10;;;;;;;3.83;2.73;;;23.50;63.10;;;;;;4998721;28;20480;-93
2021/07/28 12:24:47;;;;;;;2.37;2.17;;;23.60;62.10;;;;;;4998166;28;20422;-94
2021/07/28 12:27:25;;;;;;;4.43;3.40;;;23.70;62.10;;;;;;4998963;28;20806;-93
2021/07/28 12:29:58;;;;;;;4.77;1.80;;;24.00;61.10;;;;;;4999618;28;20438;-93
2021/07/28 12:32:41;;;;;;;7.13;1.83;;;24.00;59.90;;;;;;4998560;28;20569;-93
2021/07/28 12:35:31;;;;;;;1.70;1.60;;;23.80;59.70;;;;;;4998493;28;20457;-93
2021/07/28 12:38:21;;;;;;;1.87;1.37;;;23.80;60.30;;;;;;4999081;28;20423;-94
2021/07/28 12:40:56;;;;;;;3.03;2.10;;;24.00;60.00;;;;;;5002011;28;20413;-93
2021/07/28 12:43:34;;;;;;;2.33;1.70;;;23.70;59.30;;;;;;5002254;28;20462;-93
2021/07/28 12:46:11;;;;;;;2.10;1.90;;;23.80;59.90;;;;;;5000457;28;20423;-93